sensor_id;sensor_type;location;lat;lon;timestamp;P1;durP1;ratioP1;P2;durP2;ratioP2
62711;SDS011;48772;55.586;37.730;2022-10-20T00:00:49;8.35;;;4.93;;
62711;SDS011;48772;55.586;37.730;2022-10-20T00:03:15;10.75;;;4.88;;
62711;SDS011;48772;55.586;37.730;2022-10-20T00:05:41;11.05;;;5.18;;
62711;SDS011;48772;55.586;37.730;2022-10-20T00:08:06;8.13;;;4.55;;
62711;SDS011;48772;55.586;37.730;2022-10-20T00:10:32;10.52;;;5.07;;
62711;SDS011;48772;55.586;37.730;2022-10-20T00:12:58;9.02;;;4.63;;
62711;SDS011;48772;55.586;37.730;2022-10-20T00:15:24;8.55;;;4.57;;
62711;SDS011;48772;55.586;37.730;2022-10-20T00:17:49;7.32;;;4.35;;
62711;SDS011;48772;55.586;37.730;2022-10-20T00:20:16;6.53;;;3.85;;
62711;SDS011;48772;55.586;37.730;2022-10-20T00:22:41;8.45;;;4.03;;
62711;SDS011;48772;55.586;37.730;2022-10-20T00:25:07;6.18;;;3.25;;
62711;SDS011;48772;55.586;37.730;2022-10-20T00:27:33;5.97;;;3.38;;
62711;SDS011;48772;55.586;37.730;2022-10-20T00:29:59;4.65;;;3.33;;
62711;SDS011;48772;55.586;37.730;2022-10-20T00:32:25;4.65;;;3.35;;
62711;SDS011;48772;55.586;37.730;2022-10-20T00:34:52;7.00;;;3.33;;
62711;SDS011;48772;55.586;37.730;2022-10-20T00:37:17;8.20;;;3.72;;
62711;SDS011;48772;55.586;37.730;2022-10-20T00:39:43;6.53;;;3.47;;
62711;SDS011;48772;55.586;37.730;2022-10-20T00:42:10;5.95;;;3.05;;
62711;SDS011;48772;55.586;37.730;2022-10-20T00:44:48;6.72;;;3.05;;
62711;SDS011;48772;55.586;37.730;2022-10-20T00:47:33;8.73;;;3.47;;
62711;SDS011;48772;55.586;37.730;2022-10-20T00:50:13;6.25;;;3.30;;
62711;SDS011;48772;55.586;37.730;2022-10-20T00:52:43;4.07;;;3.03;;
62711;SDS011;48772;55.586;37.730;2022-10-20T00:55:12;5.95;;;3.08;;
62711;SDS011;48772;55.586;37.730;2022-10-20T00:57:42;5.32;;;3.17;;
62711;SDS011;48772;55.586;37.730;2022-10-20T01:00:11;7.25;;;3.33;;
62711;SDS011;48772;55.586;37.730;2022-10-20T01:02:37;5.30;;;3.63;;
62711;SDS011;48772;55.586;37.730;2022-10-20T01:05:04;6.15;;;3.60;;
62711;SDS011;48772;55.586;37.730;2022-10-20T01:07:30;7.55;;;3.97;;
62711;SDS011;48772;55.586;37.730;2022-10-20T01:09:56;6.25;;;3.75;;
62711;SDS011;48772;55.586;37.730;2022-10-20T01:17:43;5.28;;;3.80;;
62711;SDS011;48772;55.586;37.730;2022-10-20T01:23:20;5.10;;;3.67;;
62711;SDS011;48772;55.586;37.730;2022-10-20T01:28:57;8.73;;;4.10;;
62711;SDS011;48772;55.586;37.730;2022-10-20T01:31:41;5.45;;;3.42;;
62711;SDS011;48772;55.586;37.730;2022-10-20T01:34:17;4.70;;;3.40;;
62711;SDS011;48772;55.586;37.730;2022-10-20T01:36:56;7.20;;;3.70;;
62711;SDS011;48772;55.586;37.730;2022-10-20T01:39:39;6.57;;;4.00;;
62711;SDS011;48772;55.586;37.730;2022-10-20T01:42:13;5.63;;;3.50;;
62711;SDS011;48772;55.586;37.730;2022-10-20T01:44:44;5.32;;;4.18;;
62711;SDS011;48772;55.586;37.730;2022-10-20T01:47:12;9.85;;;4.40;;
62711;SDS011;48772;55.586;37.730;2022-10-20T01:49:42;5.55;;;4.25;;
62711;SDS011;48772;55.586;37.730;2022-10-20T01:52:10;6.22;;;3.90;;
62711;SDS011;48772;55.586;37.730;2022-10-20T01:54:37;7.05;;;4.13;;
62711;SDS011;48772;55.586;37.730;2022-10-20T02:08:27;4.30;;;2.95;;
62711;SDS011;48772;55.586;37.730;2022-10-20T02:13:51;4.32;;;3.00;;
62711;SDS011;48772;55.586;37.730;2022-10-20T02:16:26;5.03;;;3.08;;
62711;SDS011;48772;55.586;37.730;2022-10-20T02:19:04;5.07;;;2.77;;
62711;SDS011;48772;55.586;37.730;2022-10-20T02:21:32;4.43;;;2.60;;
62711;SDS011;48772;55.586;37.730;2022-10-20T02:23:59;4.03;;;2.40;;
62711;SDS011;48772;55.586;37.730;2022-10-20T02:26:29;5.95;;;2.88;;
62711;SDS011;48772;55.586;37.730;2022-10-20T02:28:58;5.68;;;2.45;;
62711;SDS011;48772;55.586;37.730;2022-10-20T02:31:27;4.45;;;2.55;;
62711;SDS011;48772;55.586;37.730;2022-10-20T02:33:54;6.68;;;2.30;;
62711;SDS011;48772;55.586;37.730;2022-10-20T02:36:24;5.15;;;2.20;;
62711;SDS011;48772;55.586;37.730;2022-10-20T02:38:51;4.13;;;2.28;;
62711;SDS011;48772;55.586;37.730;2022-10-20T02:41:18;3.55;;;1.98;;
62711;SDS011;48772;55.586;37.730;2022-10-20T02:43:43;4.47;;;2.22;;
62711;SDS011;48772;55.586;37.730;2022-10-20T02:46:09;2.55;;;1.80;;
62711;SDS011;48772;55.586;37.730;2022-10-20T02:48:35;4.35;;;2.50;;
62711;SDS011;48772;55.586;37.730;2022-10-20T02:51:03;9.02;;;2.40;;
62711;SDS011;48772;55.586;37.730;2022-10-20T02:53:31;5.70;;;2.72;;
62711;SDS011;48772;55.586;37.730;2022-10-20T02:55:58;2.40;;;1.90;;
62711;SDS011;48772;55.586;37.730;2022-10-20T02:58:25;7.38;;;2.03;;
62711;SDS011;48772;55.586;37.730;2022-10-20T03:00:50;3.78;;;1.85;;
62711;SDS011;48772;55.586;37.730;2022-10-20T03:03:17;4.85;;;1.80;;
62711;SDS011;48772;55.586;37.730;2022-10-20T03:05:43;3.30;;;1.80;;
62711;SDS011;48772;55.586;37.730;2022-10-20T03:08:11;4.63;;;2.65;;
62711;SDS011;48772;55.586;37.730;2022-10-20T03:10:37;4.50;;;1.90;;
62711;SDS011;48772;55.586;37.730;2022-10-20T03:13:06;2.70;;;2.03;;
62711;SDS011;48772;55.586;37.730;2022-10-20T03:15:33;6.80;;;2.08;;
62711;SDS011;48772;55.586;37.730;2022-10-20T03:17:59;4.50;;;1.80;;
62711;SDS011;48772;55.586;37.730;2022-10-20T03:20:25;4.38;;;1.80;;
62711;SDS011;48772;55.586;37.730;2022-10-20T03:22:51;1.85;;;1.63;;
62711;SDS011;48772;55.586;37.730;2022-10-20T03:25:16;3.90;;;1.90;;
62711;SDS011;48772;55.586;37.730;2022-10-20T03:27:42;5.03;;;1.85;;
62711;SDS011;48772;55.586;37.730;2022-10-20T03:30:09;3.78;;;2.00;;
62711;SDS011;48772;55.586;37.730;2022-10-20T03:32:37;5.65;;;1.98;;
62711;SDS011;48772;55.586;37.730;2022-10-20T03:35:03;7.93;;;2.00;;
62711;SDS011;48772;55.586;37.730;2022-10-20T03:37:29;5.75;;;2.33;;
62711;SDS011;48772;55.586;37.730;2022-10-20T03:39:54;6.90;;;2.78;;
62711;SDS011;48772;55.586;37.730;2022-10-20T03:42:20;4.32;;;2.45;;
62711;SDS011;48772;55.586;37.730;2022-10-20T03:44:46;19.90;;;3.25;;
62711;SDS011;48772;55.586;37.730;2022-10-20T03:47:12;3.88;;;2.30;;
62711;SDS011;48772;55.586;37.730;2022-10-20T03:49:38;3.35;;;2.17;;
62711;SDS011;48772;55.586;37.730;2022-10-20T03:52:04;6.93;;;2.40;;
62711;SDS011;48772;55.586;37.730;2022-10-20T03:54:30;4.65;;;2.40;;
62711;SDS011;48772;55.586;37.730;2022-10-20T03:56:56;6.15;;;2.80;;
62711;SDS011;48772;55.586;37.730;2022-10-20T03:59:22;3.75;;;2.70;;
62711;SDS011;48772;55.586;37.730;2022-10-20T04:01:48;4.13;;;2.80;;
62711;SDS011;48772;55.586;37.730;2022-10-20T04:04:14;3.63;;;2.70;;
62711;SDS011;48772;55.586;37.730;2022-10-20T04:06:40;3.53;;;2.58;;
62711;SDS011;48772;55.586;37.730;2022-10-20T04:09:06;4.32;;;2.47;;
62711;SDS011;48772;55.586;37.730;2022-10-20T04:11:32;6.30;;;3.00;;
62711;SDS011;48772;55.586;37.730;2022-10-20T04:13:57;7.10;;;3.25;;
62711;SDS011;48772;55.586;37.730;2022-10-20T04:16:23;12.05;;;3.35;;
62711;SDS011;48772;55.586;37.730;2022-10-20T04:18:53;5.72;;;3.72;;
62711;SDS011;48772;55.586;37.730;2022-10-20T04:21:20;7.13;;;4.00;;
62711;SDS011;48772;55.586;37.730;2022-10-20T04:23:46;6.18;;;3.67;;
62711;SDS011;48772;55.586;37.730;2022-10-20T04:26:13;5.85;;;3.90;;
62711;SDS011;48772;55.586;37.730;2022-10-20T04:28:40;5.20;;;3.92;;
62711;SDS011;48772;55.586;37.730;2022-10-20T04:31:07;9.15;;;4.65;;
62711;SDS011;48772;55.586;37.730;2022-10-20T04:33:34;12.23;;;5.10;;
62711;SDS011;48772;55.586;37.730;2022-10-20T04:36:01;6.25;;;4.72;;
62711;SDS011;48772;55.586;37.730;2022-10-20T04:38:34;11.90;;;5.65;;
62711;SDS011;48772;55.586;37.730;2022-10-20T04:41:03;14.88;;;6.65;;
62711;SDS011;48772;55.586;37.730;2022-10-20T04:43:43;9.30;;;7.07;;
62711;SDS011;48772;55.586;37.730;2022-10-20T04:46:14;8.68;;;6.43;;
62711;SDS011;48772;55.586;37.730;2022-10-20T04:48:41;9.70;;;7.40;;
62711;SDS011;48772;55.586;37.730;2022-10-20T04:51:09;12.60;;;7.43;;
62711;SDS011;48772;55.586;37.730;2022-10-20T04:53:38;9.07;;;6.53;;
62711;SDS011;48772;55.586;37.730;2022-10-20T04:56:06;10.15;;;7.07;;
62711;SDS011;48772;55.586;37.730;2022-10-20T04:58:33;10.50;;;6.80;;
62711;SDS011;48772;55.586;37.730;2022-10-20T05:01:01;14.38;;;7.45;;
62711;SDS011;48772;55.586;37.730;2022-10-20T05:03:31;9.32;;;6.63;;
62711;SDS011;48772;55.586;37.730;2022-10-20T05:06:08;11.38;;;7.07;;
62711;SDS011;48772;55.586;37.730;2022-10-20T05:08:44;9.25;;;6.28;;
62711;SDS011;48772;55.586;37.730;2022-10-20T05:11:12;11.43;;;6.95;;
62711;SDS011;48772;55.586;37.730;2022-10-20T05:13:40;10.13;;;6.70;;
62711;SDS011;48772;55.586;37.730;2022-10-20T05:16:07;9.48;;;6.22;;
62711;SDS011;48772;55.586;37.730;2022-10-20T05:18:34;11.23;;;5.53;;
62711;SDS011;48772;55.586;37.730;2022-10-20T05:21:05;9.60;;;5.80;;
62711;SDS011;48772;55.586;37.730;2022-10-20T05:23:34;11.07;;;5.35;;
62711;SDS011;48772;55.586;37.730;2022-10-20T05:26:01;9.52;;;5.28;;
62711;SDS011;48772;55.586;37.730;2022-10-20T05:28:29;12.38;;;5.63;;
62711;SDS011;48772;55.586;37.730;2022-10-20T05:30:55;9.73;;;5.60;;
62711;SDS011;48772;55.586;37.730;2022-10-20T05:33:27;7.78;;;5.63;;
62711;SDS011;48772;55.586;37.730;2022-10-20T05:35:56;10.60;;;6.50;;
62711;SDS011;48772;55.586;37.730;2022-10-20T05:38:24;8.32;;;6.18;;
62711;SDS011;48772;55.586;37.730;2022-10-20T05:40:53;8.07;;;6.25;;
62711;SDS011;48772;55.586;37.730;2022-10-20T05:43:21;8.25;;;5.63;;
62711;SDS011;48772;55.586;37.730;2022-10-20T05:45:52;9.20;;;6.03;;
62711;SDS011;48772;55.586;37.730;2022-10-20T05:48:19;7.75;;;5.50;;
62711;SDS011;48772;55.586;37.730;2022-10-20T05:50:45;6.72;;;4.68;;
62711;SDS011;48772;55.586;37.730;2022-10-20T05:53:11;8.02;;;4.80;;
62711;SDS011;48772;55.586;37.730;2022-10-20T05:55:38;7.65;;;5.57;;
62711;SDS011;48772;55.586;37.730;2022-10-20T05:58:05;7.80;;;5.25;;
62711;SDS011;48772;55.586;37.730;2022-10-20T06:00:33;7.15;;;5.03;;
62711;SDS011;48772;55.586;37.730;2022-10-20T06:03:22;7.65;;;4.93;;
62711;SDS011;48772;55.586;37.730;2022-10-20T06:05:59;6.90;;;4.57;;
62711;SDS011;48772;55.586;37.730;2022-10-20T06:13:12;13.18;;;5.78;;
62711;SDS011;48772;55.586;37.730;2022-10-20T06:15:52;10.70;;;6.03;;
62711;SDS011;48772;55.586;37.730;2022-10-20T06:19:05;8.05;;;5.18;;
62711;SDS011;48772;55.586;37.730;2022-10-20T06:21:43;10.90;;;5.95;;
62711;SDS011;48772;55.586;37.730;2022-10-20T06:24:25;7.35;;;4.53;;
62711;SDS011;48772;55.586;37.730;2022-10-20T06:27:03;6.97;;;5.30;;
62711;SDS011;48772;55.586;37.730;2022-10-20T06:29:48;6.78;;;4.72;;
62711;SDS011;48772;55.586;37.730;2022-10-20T06:32:26;9.95;;;6.38;;
62711;SDS011;48772;55.586;37.730;2022-10-20T06:35:10;8.07;;;6.20;;
62711;SDS011;48772;55.586;37.730;2022-10-20T06:38:00;9.80;;;6.03;;
62711;SDS011;48772;55.586;37.730;2022-10-20T06:40:34;7.65;;;5.45;;
62711;SDS011;48772;55.586;37.730;2022-10-20T06:43:05;8.32;;;5.93;;
62711;SDS011;48772;55.586;37.730;2022-10-20T06:45:37;8.10;;;5.20;;
62711;SDS011;48772;55.586;37.730;2022-10-20T06:48:11;11.13;;;5.55;;
62711;SDS011;48772;55.586;37.730;2022-10-20T06:50:49;8.02;;;4.80;;
62711;SDS011;48772;55.586;37.730;2022-10-20T06:53:24;5.60;;;3.58;;
62711;SDS011;48772;55.586;37.730;2022-10-20T06:56:10;3.90;;;3.03;;
62711;SDS011;48772;55.586;37.730;2022-10-20T06:58:45;5.38;;;3.45;;
62711;SDS011;48772;55.586;37.730;2022-10-20T07:01:19;3.05;;;2.75;;
62711;SDS011;48772;55.586;37.730;2022-10-20T07:04:28;6.65;;;3.30;;
62711;SDS011;48772;55.586;37.730;2022-10-20T07:07:13;4.07;;;3.28;;
62711;SDS011;48772;55.586;37.730;2022-10-20T07:09:56;4.60;;;3.20;;
62711;SDS011;48772;55.586;37.730;2022-10-20T07:12:32;5.63;;;2.90;;
62711;SDS011;48772;55.586;37.730;2022-10-20T07:15:04;6.03;;;3.15;;
62711;SDS011;48772;55.586;37.730;2022-10-20T07:23:08;5.20;;;3.28;;
62711;SDS011;48772;55.586;37.730;2022-10-20T07:25:41;6.00;;;3.63;;
62711;SDS011;48772;55.586;37.730;2022-10-20T07:28:16;8.45;;;3.80;;
62711;SDS011;48772;55.586;37.730;2022-10-20T07:30:47;7.03;;;3.00;;
62711;SDS011;48772;55.586;37.730;2022-10-20T07:33:18;4.70;;;2.90;;
62711;SDS011;48772;55.586;37.730;2022-10-20T07:35:56;10.35;;;3.10;;
62711;SDS011;48772;55.586;37.730;2022-10-20T07:41:12;4.85;;;3.05;;
62711;SDS011;48772;55.586;37.730;2022-10-20T07:43:49;7.15;;;4.30;;
62711;SDS011;48772;55.586;37.730;2022-10-20T07:46:37;4.78;;;2.78;;
62711;SDS011;48772;55.586;37.730;2022-10-20T07:49:34;4.65;;;2.70;;
62711;SDS011;48772;55.586;37.730;2022-10-20T07:52:02;5.15;;;2.58;;
62711;SDS011;48772;55.586;37.730;2022-10-20T07:54:32;6.50;;;2.90;;
62711;SDS011;48772;55.586;37.730;2022-10-20T07:57:09;2.85;;;2.45;;
62711;SDS011;48772;55.586;37.730;2022-10-20T07:59:37;6.85;;;2.72;;
62711;SDS011;48772;55.586;37.730;2022-10-20T08:02:24;4.13;;;2.38;;
62711;SDS011;48772;55.586;37.730;2022-10-20T08:04:57;6.70;;;3.22;;
62711;SDS011;48772;55.586;37.730;2022-10-20T08:07:30;3.17;;;2.20;;
62711;SDS011;48772;55.586;37.730;2022-10-20T08:10:13;5.37;;;2.10;;
62711;SDS011;48772;55.586;37.730;2022-10-20T08:12:45;3.50;;;2.50;;
62711;SDS011;48772;55.586;37.730;2022-10-20T08:15:23;5.53;;;2.72;;
62711;SDS011;48772;55.586;37.730;2022-10-20T08:17:52;3.22;;;2.28;;
62711;SDS011;48772;55.586;37.730;2022-10-20T08:20:24;3.28;;;2.60;;
62711;SDS011;48772;55.586;37.730;2022-10-20T08:23:00;5.65;;;2.63;;
62711;SDS011;48772;55.586;37.730;2022-10-20T08:25:32;3.60;;;2.63;;
62711;SDS011;48772;55.586;37.730;2022-10-20T08:28:15;4.43;;;2.60;;
62711;SDS011;48772;55.586;37.730;2022-10-20T08:31:03;5.65;;;2.50;;
62711;SDS011;48772;55.586;37.730;2022-10-20T08:33:35;4.40;;;2.42;;
62711;SDS011;48772;55.586;37.730;2022-10-20T08:39:32;3.35;;;2.10;;
62711;SDS011;48772;55.586;37.730;2022-10-20T08:42:00;3.42;;;2.08;;
62711;SDS011;48772;55.586;37.730;2022-10-20T08:44:42;4.13;;;2.17;;
62711;SDS011;48772;55.586;37.730;2022-10-20T08:47:31;5.93;;;1.67;;
62711;SDS011;48772;55.586;37.730;2022-10-20T08:50:17;3.20;;;1.90;;
62711;SDS011;48772;55.586;37.730;2022-10-20T08:52:55;8.88;;;1.77;;
62711;SDS011;48772;55.586;37.730;2022-10-20T08:55:43;3.72;;;1.85;;
62711;SDS011;48772;55.586;37.730;2022-10-20T08:58:34;3.72;;;2.30;;
62711;SDS011;48772;55.586;37.730;2022-10-20T09:01:29;3.55;;;2.28;;
62711;SDS011;48772;55.586;37.730;2022-10-20T09:04:40;4.97;;;2.22;;
62711;SDS011;48772;55.586;37.730;2022-10-20T09:07:34;3.97;;;2.38;;
62711;SDS011;48772;55.586;37.730;2022-10-20T09:10:31;3.38;;;2.47;;
62711;SDS011;48772;55.586;37.730;2022-10-20T09:17:05;2.97;;;2.35;;
62711;SDS011;48772;55.586;37.730;2022-10-20T09:20:46;3.55;;;2.30;;
62711;SDS011;48772;55.586;37.730;2022-10-20T09:33:33;3.10;;;2.53;;
62711;SDS011;48772;55.586;37.730;2022-10-20T09:36:46;4.05;;;2.67;;
62711;SDS011;48772;55.586;37.730;2022-10-20T09:41:16;3.75;;;2.80;;
62711;SDS011;48772;55.586;37.730;2022-10-20T10:14:21;5.20;;;1.95;;
62711;SDS011;48772;55.586;37.730;2022-10-20T10:21:50;3.35;;;2.63;;
62711;SDS011;48772;55.586;37.730;2022-10-20T10:35:32;3.80;;;2.35;;
62711;SDS011;48772;55.586;37.730;2022-10-20T10:42:18;2.35;;;2.15;;
62711;SDS011;48772;55.586;37.730;2022-10-20T11:06:22;3.67;;;2.30;;
62711;SDS011;48772;55.586;37.730;2022-10-20T11:17:53;4.95;;;2.60;;
62711;SDS011;48772;55.586;37.730;2022-10-20T11:28:48;4.03;;;2.00;;
62711;SDS011;48772;55.586;37.730;2022-10-20T11:32:00;2.92;;;2.00;;
62711;SDS011;48772;55.586;37.730;2022-10-20T11:36:15;6.85;;;2.30;;
62711;SDS011;48772;55.586;37.730;2022-10-20T11:48:47;2.42;;;1.90;;
62711;SDS011;48772;55.586;37.730;2022-10-20T12:05:48;2.88;;;1.42;;
62711;SDS011;48772;55.586;37.730;2022-10-20T12:28:49;3.58;;;1.70;;
62711;SDS011;48772;55.586;37.730;2022-10-20T12:37:42;2.78;;;1.30;;
62711;SDS011;48772;55.586;37.730;2022-10-20T12:47:39;2.00;;;1.60;;
62711;SDS011;48772;55.586;37.730;2022-10-20T12:54:19;3.58;;;1.50;;
62711;SDS011;48772;55.586;37.730;2022-10-20T12:57:00;1.38;;;1.20;;
62711;SDS011;48772;55.586;37.730;2022-10-20T12:59:40;1.30;;;1.20;;
62711;SDS011;48772;55.586;37.730;2022-10-20T13:04:55;2.00;;;1.70;;
62711;SDS011;48772;55.586;37.730;2022-10-20T13:08:14;4.13;;;1.50;;
62711;SDS011;48772;55.586;37.730;2022-10-20T13:10:46;7.75;;;3.72;;
62711;SDS011;48772;55.586;37.730;2022-10-20T13:15:52;2.63;;;1.95;;
62711;SDS011;48772;55.586;37.730;2022-10-20T13:18:44;3.00;;;1.90;;
62711;SDS011;48772;55.586;37.730;2022-10-20T13:21:25;4.97;;;2.40;;
62711;SDS011;48772;55.586;37.730;2022-10-20T13:24:02;3.60;;;1.98;;
62711;SDS011;48772;55.586;37.730;2022-10-20T13:29:35;4.70;;;1.65;;
62711;SDS011;48772;55.586;37.730;2022-10-20T13:44:37;3.90;;;1.40;;
62711;SDS011;48772;55.586;37.730;2022-10-20T13:50:32;5.00;;;2.25;;
62711;SDS011;48772;55.586;37.730;2022-10-20T13:53:27;7.85;;;1.98;;
62711;SDS011;48772;55.586;37.730;2022-10-20T13:58:59;8.35;;;1.60;;
62711;SDS011;48772;55.586;37.730;2022-10-20T14:01:27;7.18;;;1.50;;
62711;SDS011;48772;55.586;37.730;2022-10-20T14:03:57;3.53;;;1.88;;
62711;SDS011;48772;55.586;37.730;2022-10-20T14:08:56;4.82;;;1.70;;
62711;SDS011;48772;55.586;37.730;2022-10-20T14:11:24;3.88;;;1.88;;
62711;SDS011;48772;55.586;37.730;2022-10-20T14:13:57;4.43;;;2.10;;
62711;SDS011;48772;55.586;37.730;2022-10-20T14:16:29;4.07;;;1.60;;
62711;SDS011;48772;55.586;37.730;2022-10-20T14:19:11;6.10;;;2.72;;
62711;SDS011;48772;55.586;37.730;2022-10-20T14:21:38;8.07;;;1.95;;
62711;SDS011;48772;55.586;37.730;2022-10-20T14:24:05;5.07;;;1.95;;
62711;SDS011;48772;55.586;37.730;2022-10-20T14:26:38;3.47;;;1.77;;
62711;SDS011;48772;55.586;37.730;2022-10-20T14:29:13;4.40;;;2.13;;
62711;SDS011;48772;55.586;37.730;2022-10-20T14:31:49;4.50;;;1.95;;
62711;SDS011;48772;55.586;37.730;2022-10-20T14:34:20;9.65;;;2.28;;
62711;SDS011;48772;55.586;37.730;2022-10-20T14:36:50;3.88;;;2.00;;
62711;SDS011;48772;55.586;37.730;2022-10-20T14:39:39;4.53;;;1.98;;
62711;SDS011;48772;55.586;37.730;2022-10-20T14:44:58;10.00;;;3.45;;
62711;SDS011;48772;55.586;37.730;2022-10-20T14:47:37;4.72;;;1.95;;
62711;SDS011;48772;55.586;37.730;2022-10-20T14:50:05;8.20;;;1.73;;
62711;SDS011;48772;55.586;37.730;2022-10-20T14:52:45;6.07;;;2.33;;
62711;SDS011;48772;55.586;37.730;2022-10-20T14:55:29;5.88;;;2.00;;
62711;SDS011;48772;55.586;37.730;2022-10-20T14:58:01;8.30;;;1.92;;
62711;SDS011;48772;55.586;37.730;2022-10-20T15:00:29;9.05;;;4.57;;
62711;SDS011;48772;55.586;37.730;2022-10-20T15:03:02;3.92;;;2.03;;
62711;SDS011;48772;55.586;37.730;2022-10-20T15:05:39;5.82;;;2.40;;
62711;SDS011;48772;55.586;37.730;2022-10-20T15:08:20;7.97;;;2.20;;
62711;SDS011;48772;55.586;37.730;2022-10-20T15:10:50;6.05;;;2.47;;
62711;SDS011;48772;55.586;37.730;2022-10-20T15:13:48;6.35;;;2.20;;
62711;SDS011;48772;55.586;37.730;2022-10-20T15:16:15;5.03;;;1.73;;
62711;SDS011;48772;55.586;37.730;2022-10-20T15:19:37;3.35;;;1.65;;
62711;SDS011;48772;55.586;37.730;2022-10-20T15:24:35;5.03;;;1.58;;
62711;SDS011;48772;55.586;37.730;2022-10-20T15:27:02;5.55;;;1.98;;
62711;SDS011;48772;55.586;37.730;2022-10-20T15:29:29;2.47;;;1.73;;
62711;SDS011;48772;55.586;37.730;2022-10-20T15:31:57;3.22;;;1.60;;
62711;SDS011;48772;55.586;37.730;2022-10-20T15:34:23;3.63;;;1.50;;
62711;SDS011;48772;55.586;37.730;2022-10-20T15:36:50;8.05;;;1.80;;
62711;SDS011;48772;55.586;37.730;2022-10-20T15:39:17;2.58;;;1.90;;
62711;SDS011;48772;55.586;37.730;2022-10-20T15:41:43;4.10;;;2.33;;
62711;SDS011;48772;55.586;37.730;2022-10-20T15:44:26;8.00;;;1.85;;
62711;SDS011;48772;55.586;37.730;2022-10-20T15:46:55;5.32;;;1.90;;
62711;SDS011;48772;55.586;37.730;2022-10-20T15:49:22;4.93;;;1.40;;
62711;SDS011;48772;55.586;37.730;2022-10-20T15:51:49;5.20;;;2.05;;
62711;SDS011;48772;55.586;37.730;2022-10-20T15:54:19;3.95;;;1.88;;
62711;SDS011;48772;55.586;37.730;2022-10-20T15:56:47;6.00;;;2.13;;
62711;SDS011;48772;55.586;37.730;2022-10-20T15:59:13;2.25;;;2.03;;
62711;SDS011;48772;55.586;37.730;2022-10-20T16:01:39;2.42;;;2.00;;
62711;SDS011;48772;55.586;37.730;2022-10-20T16:04:38;3.42;;;2.22;;
62711;SDS011;48772;55.586;37.730;2022-10-20T16:06:57;5.30;;;2.33;;
62711;SDS011;48772;55.586;37.730;2022-10-20T16:09:23;5.25;;;2.22;;
62711;SDS011;48772;55.586;37.730;2022-10-20T16:11:49;3.83;;;2.35;;
62711;SDS011;48772;55.586;37.730;2022-10-20T16:14:15;5.15;;;2.90;;
62711;SDS011;48772;55.586;37.730;2022-10-20T16:16:41;6.32;;;2.78;;
62711;SDS011;48772;55.586;37.730;2022-10-20T16:19:09;2.63;;;2.10;;
62711;SDS011;48772;55.586;37.730;2022-10-20T16:21:35;6.50;;;2.50;;
62711;SDS011;48772;55.586;37.730;2022-10-20T16:24:02;4.93;;;2.30;;
62711;SDS011;48772;55.586;37.730;2022-10-20T16:26:28;4.03;;;2.35;;
62711;SDS011;48772;55.586;37.730;2022-10-20T16:28:53;3.85;;;2.00;;
62711;SDS011;48772;55.586;37.730;2022-10-20T16:31:19;5.43;;;2.55;;
62711;SDS011;48772;55.586;37.730;2022-10-20T16:33:45;1.98;;;1.63;;
62711;SDS011;48772;55.586;37.730;2022-10-20T16:36:14;12.07;;;2.63;;
62711;SDS011;48772;55.586;37.730;2022-10-20T16:38:43;7.45;;;2.83;;
62711;SDS011;48772;55.586;37.730;2022-10-20T16:41:10;10.32;;;2.83;;
62711;SDS011;48772;55.586;37.730;2022-10-20T16:43:38;4.97;;;2.83;;
62711;SDS011;48772;55.586;37.730;2022-10-20T16:46:06;5.72;;;3.83;;
62711;SDS011;48772;55.586;37.730;2022-10-20T16:48:33;3.60;;;3.00;;
62711;SDS011;48772;55.586;37.730;2022-10-20T16:51:02;8.80;;;2.97;;
62711;SDS011;48772;55.586;37.730;2022-10-20T16:53:30;5.50;;;2.80;;
62711;SDS011;48772;55.586;37.730;2022-10-20T16:55:56;4.72;;;2.97;;
62711;SDS011;48772;55.586;37.730;2022-10-20T16:58:22;3.35;;;2.67;;
62711;SDS011;48772;55.586;37.730;2022-10-20T17:00:56;2.65;;;2.45;;
62711;SDS011;48772;55.586;37.730;2022-10-20T17:03:30;2.90;;;2.65;;
62711;SDS011;48772;55.586;37.730;2022-10-20T17:05:57;3.40;;;2.72;;
62711;SDS011;48772;55.586;37.730;2022-10-20T17:08:25;4.60;;;2.50;;
62711;SDS011;48772;55.586;37.730;2022-10-20T17:10:58;4.10;;;2.85;;
62711;SDS011;48772;55.586;37.730;2022-10-20T17:15:54;4.32;;;2.65;;
62711;SDS011;48772;55.586;37.730;2022-10-20T17:18:21;4.22;;;3.17;;
62711;SDS011;48772;55.586;37.730;2022-10-20T17:20:52;3.50;;;3.08;;
62711;SDS011;48772;55.586;37.730;2022-10-20T17:23:20;3.72;;;2.75;;
62711;SDS011;48772;55.586;37.730;2022-10-20T17:25:50;3.40;;;3.10;;
62711;SDS011;48772;55.586;37.730;2022-10-20T17:28:18;3.60;;;3.30;;
62711;SDS011;48772;55.586;37.730;2022-10-20T17:30:45;5.65;;;3.45;;
62711;SDS011;48772;55.586;37.730;2022-10-20T17:33:12;4.65;;;3.47;;
62711;SDS011;48772;55.586;37.730;2022-10-20T17:35:43;4.03;;;3.28;;
62711;SDS011;48772;55.586;37.730;2022-10-20T17:38:12;6.95;;;3.72;;
62711;SDS011;48772;55.586;37.730;2022-10-20T17:40:38;3.40;;;3.10;;
62711;SDS011;48772;55.586;37.730;2022-10-20T17:43:05;4.60;;;3.30;;
62711;SDS011;48772;55.586;37.730;2022-10-20T17:45:31;3.85;;;3.53;;
62711;SDS011;48772;55.586;37.730;2022-10-20T17:47:58;8.60;;;3.80;;
62711;SDS011;48772;55.586;37.730;2022-10-20T17:50:24;5.82;;;3.45;;
62711;SDS011;48772;55.586;37.730;2022-10-20T17:52:51;4.18;;;3.78;;
62711;SDS011;48772;55.586;37.730;2022-10-20T17:55:18;6.00;;;3.70;;
62711;SDS011;48772;55.586;37.730;2022-10-20T17:57:45;5.03;;;3.70;;
62711;SDS011;48772;55.586;37.730;2022-10-20T18:00:12;6.57;;;3.50;;
62711;SDS011;48772;55.586;37.730;2022-10-20T18:02:39;5.10;;;3.10;;
62711;SDS011;48772;55.586;37.730;2022-10-20T18:05:10;5.07;;;3.65;;
62711;SDS011;48772;55.586;37.730;2022-10-20T18:07:36;6.25;;;3.88;;
62711;SDS011;48772;55.586;37.730;2022-10-20T18:10:02;5.30;;;3.92;;
62711;SDS011;48772;55.586;37.730;2022-10-20T18:12:28;4.40;;;3.85;;
62711;SDS011;48772;55.586;37.730;2022-10-20T18:14:55;4.45;;;3.75;;
62711;SDS011;48772;55.586;37.730;2022-10-20T18:17:21;7.28;;;3.85;;
62711;SDS011;48772;55.586;37.730;2022-10-20T18:19:47;7.82;;;4.07;;
62711;SDS011;48772;55.586;37.730;2022-10-20T18:22:21;4.93;;;4.10;;
62711;SDS011;48772;55.586;37.730;2022-10-20T18:24:52;7.03;;;4.03;;
62711;SDS011;48772;55.586;37.730;2022-10-20T18:27:46;5.30;;;3.97;;
62711;SDS011;48772;55.586;37.730;2022-10-20T18:30:30;7.75;;;3.95;;
62711;SDS011;48772;55.586;37.730;2022-10-20T18:33:05;4.50;;;3.88;;
62711;SDS011;48772;55.586;37.730;2022-10-20T18:35:36;6.05;;;4.00;;
62711;SDS011;48772;55.586;37.730;2022-10-20T18:40:44;5.07;;;3.40;;
62711;SDS011;48772;55.586;37.730;2022-10-20T18:43:24;4.75;;;3.78;;
62711;SDS011;48772;55.586;37.730;2022-10-20T18:45:52;4.22;;;3.60;;
62711;SDS011;48772;55.586;37.730;2022-10-20T18:48:24;5.18;;;4.35;;
62711;SDS011;48772;55.586;37.730;2022-10-20T18:50:55;4.28;;;3.88;;
62711;SDS011;48772;55.586;37.730;2022-10-20T18:53:28;5.60;;;4.10;;
62711;SDS011;48772;55.586;37.730;2022-10-20T18:58:48;4.03;;;3.55;;
62711;SDS011;48772;55.586;37.730;2022-10-20T19:01:17;4.85;;;3.92;;
62711;SDS011;48772;55.586;37.730;2022-10-20T19:03:49;5.53;;;3.63;;
62711;SDS011;48772;55.586;37.730;2022-10-20T19:06:19;4.47;;;3.95;;
62711;SDS011;48772;55.586;37.730;2022-10-20T19:08:55;4.63;;;3.83;;
62711;SDS011;48772;55.586;37.730;2022-10-20T19:11:26;5.53;;;4.72;;
62711;SDS011;48772;55.586;37.730;2022-10-20T19:13:55;7.20;;;4.13;;
62711;SDS011;48772;55.586;37.730;2022-10-20T19:16:27;7.60;;;4.55;;
62711;SDS011;48772;55.586;37.730;2022-10-20T19:18:57;6.30;;;4.18;;